DLH3YM EDDF-EDDB
Flight info
| Callsign | DLH3YM |
|---|---|
| Flight time | 0h 53m |
| Altitude | 31000 |
| Route | TOBAK3W/25C TOBAK N858 SWALM T201 TAMEB T278 KLF KLF1R |
| Aircraft | A320/M-SDE2E3FGIJ1LORWXYZ/HB1 |
Departure
| Time | 2026-05-05 08:42 |
|---|---|
| Airport | Frankfurt Main Airport (EDDF) |
Arrival
| Time | 2026-05-05 09:36 |
|---|---|
| Airport | Berlin Brandenburg Airport (EDDB) |
| Time | Latitude | Longitude | Altitude | Speed | Heading |
|---|---|---|---|---|---|
| 2026-05-05 08:07 | 50.04910 | 8.58866 | 363 ft | 0 kts | 160° |
| 2026-05-05 08:33 | 50.04920 | 8.58861 | 366 ft | 4 kts | 160° |
| 2026-05-05 08:33 | 50.04942 | 8.58848 | 362 ft | 2 kts | 159° |
| 2026-05-05 08:33 | 50.04963 | 8.58842 | 363 ft | 4 kts | 213° |
| 2026-05-05 08:33 | 50.04976 | 8.58870 | 360 ft | 4 kts | 250° |
| 2026-05-05 08:34 | 50.04981 | 8.58890 | 360 ft | 1 kts | 250° |
| 2026-05-05 08:34 | 50.04981 | 8.58891 | 360 ft | 1 kts | 250° |
| 2026-05-05 08:34 | 50.04981 | 8.58890 | 360 ft | 0 kts | 250° |
| 2026-05-05 08:37 | 50.04975 | 8.58863 | 360 ft | 4 kts | 250° |
| 2026-05-05 08:37 | 50.04967 | 8.58831 | 361 ft | 3 kts | 250° |
| 2026-05-05 08:37 | 50.04958 | 8.58793 | 360 ft | 5 kts | 250° |
| 2026-05-05 08:38 | 50.04945 | 8.58737 | 366 ft | 6 kts | 250° |
| 2026-05-05 08:38 | 50.04927 | 8.58697 | 360 ft | 4 kts | 220° |
| 2026-05-05 08:38 | 50.04898 | 8.58685 | 361 ft | 4 kts | 182° |
| 2026-05-05 08:38 | 50.04870 | 8.58695 | 362 ft | 4 kts | 162° |
| 2026-05-05 08:39 | 50.04835 | 8.58714 | 367 ft | 9 kts | 160° |
| 2026-05-05 08:39 | 50.04756 | 8.58759 | 369 ft | 11 kts | 160° |
| 2026-05-05 08:39 | 50.04694 | 8.58767 | 370 ft | 7 kts | 185° |
| 2026-05-05 08:39 | 50.04650 | 8.58758 | 370 ft | 9 kts | 188° |
| 2026-05-05 08:40 | 50.04581 | 8.58710 | 371 ft | 11 kts | 218° |
| 2026-05-05 08:40 | 50.04524 | 8.58635 | 371 ft | 10 kts | 221° |
| 2026-05-05 08:40 | 50.04480 | 8.58554 | 370 ft | 9 kts | 245° |
| 2026-05-05 08:40 | 50.04462 | 8.58485 | 370 ft | 0 kts | 249° |
| 2026-05-05 08:41 | 50.04428 | 8.58346 | 369 ft | 47 kts | 249° |
| 2026-05-05 08:41 | 50.04222 | 8.57479 | 367 ft | 118 kts | 250° |
| 2026-05-05 08:42 | 50.03873 | 8.56004 | 363 ft | 170 kts | 251° |
| 2026-05-05 08:42 | 50.03460 | 8.54215 | 939 ft | 178 kts | 250° |
| 2026-05-05 08:42 | 50.03026 | 8.52422 | 1754 ft | 178 kts | 249° |
| 2026-05-05 08:42 | 50.02541 | 8.50573 | 2178 ft | 198 kts | 240° |
| 2026-05-05 08:43 | 50.01590 | 8.48939 | 2714 ft | 210 kts | 213° |
| 2026-05-05 08:43 | 50.00259 | 8.48049 | 3599 ft | 208 kts | 190° |
| 2026-05-05 08:43 | 49.98825 | 8.47703 | 4513 ft | 208 kts | 188° |
| 2026-05-05 08:43 | 49.97388 | 8.47380 | 5397 ft | 209 kts | 188° |
| 2026-05-05 08:44 | 49.95956 | 8.47011 | 6276 ft | 210 kts | 195° |
| 2026-05-05 08:44 | 49.94479 | 8.46347 | 6740 ft | 232 kts | 196° |
| 2026-05-05 08:44 | 49.92887 | 8.45591 | 7407 ft | 244 kts | 201° |
| 2026-05-05 08:44 | 49.91496 | 8.44120 | 8219 ft | 251 kts | 229° |
| 2026-05-05 08:45 | 49.90696 | 8.41697 | 9132 ft | 259 kts | 257° |
| 2026-05-05 08:45 | 49.90773 | 8.38901 | 9992 ft | 266 kts | 287° |
| 2026-05-05 08:45 | 49.91774 | 8.36476 | 10794 ft | 274 kts | 317° |
| 2026-05-05 08:45 | 49.93452 | 8.34995 | 11570 ft | 284 kts | 334° |
| 2026-05-05 08:46 | 49.95346 | 8.33740 | 11890 ft | 308 kts | 335° |
| 2026-05-05 08:46 | 49.97405 | 8.32419 | 12182 ft | 332 kts | 336° |
| 2026-05-05 08:46 | 49.99586 | 8.31032 | 12759 ft | 343 kts | 336° |
| 2026-05-05 08:46 | 50.01831 | 8.29686 | 13511 ft | 350 kts | 341° |
| 2026-05-05 08:47 | 50.04248 | 8.28972 | 14211 ft | 357 kts | 354° |
| 2026-05-05 08:47 | 50.06750 | 8.29096 | 14874 ft | 364 kts | 7° |
| 2026-05-05 08:47 | 50.09224 | 8.30062 | 15523 ft | 369 kts | 18° |
| 2026-05-05 08:47 | 50.11673 | 8.31345 | 16189 ft | 374 kts | 18° |
| 2026-05-05 08:48 | 50.14156 | 8.32647 | 16862 ft | 378 kts | 18° |
| 2026-05-05 08:48 | 50.16668 | 8.33964 | 17528 ft | 383 kts | 18° |
| 2026-05-05 08:48 | 50.19212 | 8.35298 | 18176 ft | 387 kts | 18° |
| 2026-05-05 08:48 | 50.21784 | 8.36650 | 18763 ft | 391 kts | 18° |
| 2026-05-05 08:49 | 50.24375 | 8.38010 | 19369 ft | 394 kts | 18° |
| 2026-05-05 08:49 | 50.26977 | 8.39425 | 19985 ft | 398 kts | 21° |
| 2026-05-05 08:49 | 50.29451 | 8.41407 | 20574 ft | 401 kts | 32° |
| 2026-05-05 08:49 | 50.31674 | 8.44056 | 21152 ft | 404 kts | 42° |
| 2026-05-05 08:50 | 50.33750 | 8.46962 | 21721 ft | 406 kts | 42° |
| 2026-05-05 08:50 | 50.35865 | 8.49908 | 22281 ft | 409 kts | 41° |
| 2026-05-05 08:50 | 50.38012 | 8.52880 | 22826 ft | 413 kts | 41° |
| 2026-05-05 08:50 | 50.40173 | 8.55868 | 23360 ft | 416 kts | 41° |
| 2026-05-05 08:51 | 50.42351 | 8.58887 | 23811 ft | 419 kts | 41° |
| 2026-05-05 08:51 | 50.44540 | 8.61929 | 24253 ft | 422 kts | 41° |
| 2026-05-05 08:51 | 50.46764 | 8.64963 | 24678 ft | 426 kts | 40° |
| 2026-05-05 08:51 | 50.49039 | 8.67980 | 25095 ft | 429 kts | 39° |
| 2026-05-05 08:52 | 50.51341 | 8.70990 | 25518 ft | 432 kts | 39° |
| 2026-05-05 08:52 | 50.53669 | 8.74014 | 25935 ft | 435 kts | 39° |
| 2026-05-05 08:52 | 50.55940 | 8.77198 | 26330 ft | 439 kts | 46° |
| 2026-05-05 08:52 | 50.57889 | 8.80924 | 26719 ft | 442 kts | 56° |
| 2026-05-05 08:53 | 50.59458 | 8.85094 | 27112 ft | 445 kts | 62° |
| 2026-05-05 08:53 | 50.60946 | 8.89397 | 27532 ft | 449 kts | 62° |
| 2026-05-05 08:53 | 50.62444 | 8.93724 | 27906 ft | 452 kts | 62° |
| 2026-05-05 08:53 | 50.63955 | 8.98087 | 28289 ft | 455 kts | 62° |
| 2026-05-05 08:54 | 50.65478 | 9.02479 | 28667 ft | 458 kts | 62° |
| 2026-05-05 08:54 | 50.67012 | 9.06903 | 29033 ft | 461 kts | 62° |
| 2026-05-05 08:54 | 50.68536 | 9.11305 | 29409 ft | 465 kts | 62° |
| 2026-05-05 08:54 | 50.70085 | 9.15800 | 29784 ft | 468 kts | 62° |
| 2026-05-05 08:55 | 50.71490 | 9.20446 | 30099 ft | 469 kts | 70° |
| 2026-05-05 08:55 | 50.72461 | 9.25357 | 30400 ft | 470 kts | 79° |
| 2026-05-05 08:55 | 50.73212 | 9.30397 | 30686 ft | 472 kts | 79° |
| 2026-05-05 08:55 | 50.73970 | 9.35454 | 30848 ft | 473 kts | 79° |
| 2026-05-05 08:56 | 50.74720 | 9.40433 | 30861 ft | 457 kts | 79° |
| 2026-05-05 08:56 | 50.75447 | 9.45226 | 30876 ft | 443 kts | 79° |
| 2026-05-05 08:56 | 50.76158 | 9.49931 | 30885 ft | 438 kts | 79° |
| 2026-05-05 08:57 | 50.77555 | 9.59278 | 30872 ft | 436 kts | 79° |
| 2026-05-05 08:57 | 50.78935 | 9.68600 | 30869 ft | 435 kts | 79° |
| 2026-05-05 08:58 | 50.80300 | 9.77881 | 30876 ft | 436 kts | 79° |
| 2026-05-05 08:58 | 50.81671 | 9.87207 | 30883 ft | 435 kts | 79° |
| 2026-05-05 08:59 | 50.83031 | 9.96551 | 30864 ft | 435 kts | 79° |
| 2026-05-05 08:59 | 50.84295 | 10.05928 | 30865 ft | 433 kts | 86° |
| 2026-05-05 09:00 | 50.84204 | 10.15337 | 30865 ft | 427 kts | 99° |
| 2026-05-05 09:00 | 50.83659 | 10.24625 | 30872 ft | 427 kts | 99° |
| 2026-05-05 09:01 | 50.83116 | 10.33972 | 30870 ft | 427 kts | 99° |
| 2026-05-05 09:01 | 50.82568 | 10.43342 | 30864 ft | 427 kts | 99° |
| 2026-05-05 09:02 | 50.82013 | 10.52703 | 30874 ft | 427 kts | 99° |
| 2026-05-05 09:02 | 50.81448 | 10.62010 | 30886 ft | 427 kts | 99° |
| 2026-05-05 09:03 | 50.81397 | 10.71427 | 30894 ft | 433 kts | 84° |
| 2026-05-05 09:03 | 50.82098 | 10.76059 | 30893 ft | 435 kts | 73° |
| 2026-05-05 09:03 | 50.83301 | 10.80463 | 30904 ft | 437 kts | 62° |
| 2026-05-05 09:04 | 50.86191 | 10.88937 | 30889 ft | 438 kts | 62° |
| 2026-05-05 09:04 | 50.89057 | 10.97463 | 30896 ft | 438 kts | 62° |
| 2026-05-05 09:05 | 50.91917 | 11.06009 | 30898 ft | 439 kts | 62° |
| 2026-05-05 09:05 | 50.94757 | 11.14508 | 30894 ft | 439 kts | 62° |
| 2026-05-05 09:06 | 50.97608 | 11.23070 | 30897 ft | 439 kts | 63° |
| 2026-05-05 09:06 | 51.00453 | 11.31649 | 30880 ft | 439 kts | 63° |
| 2026-05-05 09:07 | 51.03300 | 11.40238 | 30893 ft | 439 kts | 62° |
| 2026-05-05 09:07 | 51.06123 | 11.48786 | 30865 ft | 439 kts | 62° |
| 2026-05-05 09:08 | 51.08959 | 11.57418 | 30870 ft | 439 kts | 62° |
| 2026-05-05 09:08 | 51.11781 | 11.66050 | 30869 ft | 440 kts | 62° |
| 2026-05-05 09:09 | 51.14598 | 11.74690 | 30867 ft | 440 kts | 62° |
| 2026-05-05 09:09 | 51.17405 | 11.83353 | 30872 ft | 440 kts | 62° |
| 2026-05-05 09:10 | 51.20226 | 11.92000 | 30886 ft | 439 kts | 58° |
| 2026-05-05 09:10 | 51.23999 | 11.99596 | 30851 ft | 437 kts | 44° |
| 2026-05-05 09:11 | 51.28190 | 12.06609 | 30858 ft | 437 kts | 44° |
| 2026-05-05 09:11 | 51.32355 | 12.13621 | 30835 ft | 437 kts | 44° |
| 2026-05-05 09:11 | 51.34437 | 12.17139 | 30588 ft | 434 kts | 44° |
| 2026-05-05 09:12 | 51.36493 | 12.20626 | 30267 ft | 429 kts | 45° |
| 2026-05-05 09:12 | 51.38538 | 12.24100 | 29723 ft | 427 kts | 45° |
| 2026-05-05 09:12 | 51.40568 | 12.27554 | 29275 ft | 423 kts | 44° |
| 2026-05-05 09:12 | 51.42574 | 12.30967 | 28763 ft | 419 kts | 44° |
| 2026-05-05 09:13 | 51.44564 | 12.34351 | 28320 ft | 415 kts | 44° |
| 2026-05-05 09:13 | 51.46535 | 12.37702 | 27863 ft | 411 kts | 44° |
| 2026-05-05 09:13 | 51.48488 | 12.41026 | 27394 ft | 408 kts | 44° |
| 2026-05-05 09:13 | 51.50431 | 12.44330 | 26927 ft | 405 kts | 45° |
| 2026-05-05 09:14 | 51.52359 | 12.47614 | 26444 ft | 402 kts | 45° |
| 2026-05-05 09:14 | 51.54270 | 12.50885 | 25965 ft | 400 kts | 45° |
| 2026-05-05 09:14 | 51.56172 | 12.54149 | 25463 ft | 399 kts | 45° |
| 2026-05-05 09:14 | 51.58068 | 12.57408 | 24972 ft | 399 kts | 45° |
| 2026-05-05 09:15 | 51.59959 | 12.60662 | 24456 ft | 398 kts | 46° |
| 2026-05-05 09:15 | 51.61845 | 12.63916 | 23940 ft | 398 kts | 46° |
| 2026-05-05 09:15 | 51.63733 | 12.67176 | 23403 ft | 397 kts | 46° |
| 2026-05-05 09:15 | 51.65618 | 12.70427 | 22836 ft | 396 kts | 46° |
| 2026-05-05 09:16 | 51.67494 | 12.73663 | 22336 ft | 394 kts | 46° |
| 2026-05-05 09:16 | 51.69355 | 12.76879 | 21838 ft | 392 kts | 46° |
| 2026-05-05 09:16 | 51.71208 | 12.80088 | 21351 ft | 390 kts | 46° |
| 2026-05-05 09:16 | 51.73058 | 12.83297 | 20856 ft | 391 kts | 46° |
| 2026-05-05 09:17 | 51.74890 | 12.86480 | 20370 ft | 392 kts | 46° |
| 2026-05-05 09:17 | 51.76752 | 12.89717 | 19880 ft | 391 kts | 47° |
| 2026-05-05 09:17 | 51.78422 | 12.93166 | 19465 ft | 388 kts | 58° |
| 2026-05-05 09:17 | 51.79823 | 12.96897 | 18985 ft | 387 kts | 59° |
| 2026-05-05 09:18 | 51.81211 | 13.00596 | 18601 ft | 384 kts | 59° |
| 2026-05-05 09:18 | 51.82588 | 13.04255 | 18243 ft | 379 kts | 59° |
| 2026-05-05 09:18 | 51.83957 | 13.07895 | 17754 ft | 377 kts | 59° |
| 2026-05-05 09:18 | 51.85311 | 13.11505 | 17300 ft | 374 kts | 59° |
| 2026-05-05 09:19 | 51.86638 | 13.15051 | 16887 ft | 371 kts | 59° |
| 2026-05-05 09:19 | 51.87967 | 13.18615 | 16459 ft | 369 kts | 59° |
| 2026-05-05 09:19 | 51.89283 | 13.22157 | 16044 ft | 366 kts | 59° |
| 2026-05-05 09:19 | 51.90591 | 13.25675 | 15641 ft | 363 kts | 59° |
| 2026-05-05 09:20 | 51.91890 | 13.29165 | 15215 ft | 361 kts | 59° |
| 2026-05-05 09:20 | 51.93183 | 13.32646 | 14797 ft | 359 kts | 59° |
| 2026-05-05 09:20 | 51.94468 | 13.36106 | 14405 ft | 357 kts | 59° |
| 2026-05-05 09:20 | 51.95313 | 13.38386 | 14149 ft | 356 kts | 59° |
| 2026-05-05 09:21 | 51.96583 | 13.41823 | 13785 ft | 354 kts | 59° |
| 2026-05-05 09:21 | 51.97859 | 13.45195 | 13167 ft | 347 kts | 54° |
| 2026-05-05 09:21 | 51.99602 | 13.47823 | 12449 ft | 340 kts | 28° |
| 2026-05-05 09:21 | 52.01779 | 13.49017 | 11961 ft | 324 kts | 3° |
| 2026-05-05 09:22 | 52.03963 | 13.48783 | 11298 ft | 312 kts | 340° |
| 2026-05-05 09:22 | 52.05875 | 13.47224 | 10491 ft | 306 kts | 317° |
| 2026-05-05 09:22 | 52.07314 | 13.44777 | 10047 ft | 293 kts | 303° |
| 2026-05-05 09:22 | 52.08509 | 13.42160 | 9910 ft | 283 kts | 304° |
| 2026-05-05 09:23 | 52.09677 | 13.39658 | 9787 ft | 273 kts | 304° |
| 2026-05-05 09:23 | 52.10809 | 13.37247 | 9628 ft | 265 kts | 304° |
| 2026-05-05 09:23 | 52.11899 | 13.34920 | 9390 ft | 259 kts | 304° |
| 2026-05-05 09:23 | 52.12977 | 13.32607 | 9147 ft | 253 kts | 304° |
| 2026-05-05 09:24 | 52.14029 | 13.30340 | 8915 ft | 248 kts | 304° |
| 2026-05-05 09:24 | 52.15061 | 13.28106 | 8681 ft | 246 kts | 303° |
| 2026-05-05 09:24 | 52.16084 | 13.25886 | 8445 ft | 245 kts | 304° |
| 2026-05-05 09:24 | 52.17106 | 13.23674 | 8208 ft | 242 kts | 304° |
| 2026-05-05 09:25 | 52.18027 | 13.21443 | 7990 ft | 233 kts | 291° |
| 2026-05-05 09:25 | 52.18440 | 13.18961 | 7760 ft | 223 kts | 271° |
| 2026-05-05 09:25 | 52.18305 | 13.16495 | 7530 ft | 216 kts | 252° |
| 2026-05-05 09:25 | 52.17776 | 13.14219 | 7314 ft | 215 kts | 247° |
| 2026-05-05 09:26 | 52.17231 | 13.11992 | 7086 ft | 214 kts | 248° |
| 2026-05-05 09:26 | 52.16686 | 13.09739 | 6863 ft | 213 kts | 248° |
| 2026-05-05 09:26 | 52.16143 | 13.07495 | 6643 ft | 213 kts | 248° |
| 2026-05-05 09:26 | 52.15602 | 13.05259 | 6425 ft | 212 kts | 248° |
| 2026-05-05 09:27 | 52.15330 | 13.02928 | 6196 ft | 212 kts | 275° |
| 2026-05-05 09:27 | 52.15904 | 13.00755 | 5984 ft | 212 kts | 308° |
| 2026-05-05 09:27 | 52.17091 | 12.99418 | 5767 ft | 206 kts | 332° |
| 2026-05-05 09:27 | 52.18397 | 12.98542 | 5532 ft | 201 kts | 342° |
| 2026-05-05 09:28 | 52.19761 | 12.98627 | 5316 ft | 195 kts | 13° |
| 2026-05-05 09:28 | 52.21024 | 12.99302 | 5094 ft | 187 kts | 19° |
| 2026-05-05 09:28 | 52.22188 | 12.99996 | 5002 ft | 173 kts | 20° |
| 2026-05-05 09:28 | 52.23181 | 13.00977 | 4996 ft | 166 kts | 43° |
| 2026-05-05 09:29 | 52.23859 | 13.02472 | 4999 ft | 164 kts | 66° |
| 2026-05-05 09:29 | 52.24283 | 13.04202 | 5010 ft | 164 kts | 69° |
| 2026-05-05 09:29 | 52.24705 | 13.05934 | 5008 ft | 164 kts | 69° |
| 2026-05-05 09:29 | 52.25126 | 13.07668 | 5005 ft | 164 kts | 69° |
| 2026-05-05 09:30 | 52.25548 | 13.09409 | 4895 ft | 165 kts | 69° |
| 2026-05-05 09:30 | 52.25968 | 13.11142 | 4711 ft | 164 kts | 69° |
| 2026-05-05 09:30 | 52.26384 | 13.12863 | 4508 ft | 162 kts | 69° |
| 2026-05-05 09:30 | 52.26799 | 13.14575 | 4290 ft | 162 kts | 69° |
| 2026-05-05 09:31 | 52.27208 | 13.16269 | 4089 ft | 163 kts | 69° |
| 2026-05-05 09:31 | 52.27626 | 13.17999 | 3865 ft | 164 kts | 69° |
| 2026-05-05 09:31 | 52.28047 | 13.19747 | 3650 ft | 167 kts | 69° |
| 2026-05-05 09:31 | 52.28478 | 13.21534 | 3427 ft | 169 kts | 69° |
| 2026-05-05 09:32 | 52.28911 | 13.23330 | 3198 ft | 170 kts | 69° |
| 2026-05-05 09:32 | 52.29342 | 13.25123 | 2968 ft | 170 kts | 69° |
| 2026-05-05 09:32 | 52.29780 | 13.26940 | 2753 ft | 173 kts | 69° |
| 2026-05-05 09:32 | 52.30221 | 13.28777 | 2509 ft | 173 kts | 69° |
| 2026-05-05 09:33 | 52.30652 | 13.30571 | 2272 ft | 166 kts | 69° |
| 2026-05-05 09:33 | 52.31064 | 13.32289 | 2056 ft | 160 kts | 69° |
| 2026-05-05 09:33 | 52.31464 | 13.33957 | 1846 ft | 157 kts | 69° |
| 2026-05-05 09:33 | 52.31860 | 13.35613 | 1640 ft | 156 kts | 69° |
| 2026-05-05 09:34 | 52.32254 | 13.37256 | 1430 ft | 155 kts | 69° |
| 2026-05-05 09:34 | 52.32644 | 13.38888 | 1217 ft | 153 kts | 69° |
| 2026-05-05 09:34 | 52.33029 | 13.40514 | 1025 ft | 156 kts | 69° |
| 2026-05-05 09:34 | 52.33425 | 13.42169 | 780 ft | 159 kts | 69° |
| 2026-05-05 09:35 | 52.33821 | 13.43811 | 567 ft | 151 kts | 69° |
| 2026-05-05 09:35 | 52.34556 | 13.46892 | 215 ft | 142 kts | 69° |
| 2026-05-05 09:35 | 52.34896 | 13.48347 | 154 ft | 117 kts | 69° |
| 2026-05-05 09:36 | 52.35082 | 13.49118 | 154 ft | 29 kts | 67° |
| 2026-05-05 09:36 | 52.35097 | 13.49176 | 154 ft | 3 kts | 67° |
| 2026-05-05 09:36 | 52.35127 | 13.49203 | 154 ft | 7 kts | 31° |
| 2026-05-05 09:36 | 52.35178 | 13.49289 | 154 ft | 14 kts | 45° |
| 2026-05-05 09:37 | 52.35272 | 13.49415 | 154 ft | 20 kts | 38° |
| 2026-05-05 09:37 | 52.35386 | 13.49567 | 154 ft | 22 kts | 39° |
| 2026-05-05 09:37 | 52.35476 | 13.49778 | 154 ft | 24 kts | 69° |
| 2026-05-05 09:37 | 52.35539 | 13.50044 | 154 ft | 26 kts | 69° |
| 2026-05-05 09:38 | 52.35605 | 13.50324 | 155 ft | 25 kts | 68° |
| 2026-05-05 09:38 | 52.35660 | 13.50557 | 155 ft | 22 kts | 69° |
| 2026-05-05 09:38 | 52.35711 | 13.50770 | 155 ft | 16 kts | 66° |
| 2026-05-05 09:38 | 52.35810 | 13.50802 | 155 ft | 17 kts | 339° |
| 2026-05-05 09:39 | 52.35925 | 13.50729 | 155 ft | 18 kts | 339° |
| 2026-05-05 09:39 | 52.36044 | 13.50661 | 155 ft | 13 kts | 358° |
| 2026-05-05 09:39 | 52.36087 | 13.50756 | 155 ft | 10 kts | 70° |
| 2026-05-05 09:39 | 52.36094 | 13.50787 | 155 ft | 0 kts | 69° |